sensor_id;sensor_type;location;lat;lon;timestamp;P1;durP1;ratioP1;P2;durP2;ratioP2
2656;SDS011;1338;48.176;11.792;2023-05-07T00:02:10;7.63;;;6.83;;
2656;SDS011;1338;48.176;11.792;2023-05-07T00:04:40;7.70;;;7.00;;
2656;SDS011;1338;48.176;11.792;2023-05-07T00:07:08;7.00;;;6.43;;
2656;SDS011;1338;48.176;11.792;2023-05-07T00:09:36;7.80;;;7.17;;
2656;SDS011;1338;48.176;11.792;2023-05-07T00:12:04;7.87;;;7.07;;
2656;SDS011;1338;48.176;11.792;2023-05-07T00:14:32;6.57;;;5.97;;
2656;SDS011;1338;48.176;11.792;2023-05-07T00:17:00;7.17;;;6.47;;
2656;SDS011;1338;48.176;11.792;2023-05-07T00:19:28;6.90;;;6.30;;
2656;SDS011;1338;48.176;11.792;2023-05-07T00:22:00;6.40;;;5.80;;
2656;SDS011;1338;48.176;11.792;2023-05-07T00:24:28;6.40;;;5.80;;
2656;SDS011;1338;48.176;11.792;2023-05-07T00:26:56;7.53;;;6.10;;
2656;SDS011;1338;48.176;11.792;2023-05-07T00:29:24;6.13;;;5.67;;
2656;SDS011;1338;48.176;11.792;2023-05-07T00:31:52;5.73;;;5.17;;
2656;SDS011;1338;48.176;11.792;2023-05-07T00:34:21;6.20;;;5.60;;
2656;SDS011;1338;48.176;11.792;2023-05-07T00:36:49;6.47;;;5.97;;
2656;SDS011;1338;48.176;11.792;2023-05-07T00:39:19;6.30;;;5.70;;
2656;SDS011;1338;48.176;11.792;2023-05-07T00:41:47;5.63;;;5.10;;
2656;SDS011;1338;48.176;11.792;2023-05-07T00:44:15;6.50;;;5.90;;
2656;SDS011;1338;48.176;11.792;2023-05-07T00:46:44;6.77;;;6.17;;
2656;SDS011;1338;48.176;11.792;2023-05-07T00:49:15;6.70;;;6.10;;
2656;SDS011;1338;48.176;11.792;2023-05-07T00:51:43;6.67;;;6.10;;
2656;SDS011;1338;48.176;11.792;2023-05-07T00:54:12;8.57;;;6.60;;
2656;SDS011;1338;48.176;11.792;2023-05-07T00:56:42;4.97;;;4.57;;
2656;SDS011;1338;48.176;11.792;2023-05-07T00:59:11;5.23;;;4.83;;
2656;SDS011;1338;48.176;11.792;2023-05-07T01:01:39;5.53;;;5.10;;
2656;SDS011;1338;48.176;11.792;2023-05-07T01:04:07;5.30;;;4.90;;
2656;SDS011;1338;48.176;11.792;2023-05-07T01:06:36;5.77;;;5.27;;
2656;SDS011;1338;48.176;11.792;2023-05-07T01:09:06;5.60;;;5.07;;
2656;SDS011;1338;48.176;11.792;2023-05-07T01:11:35;5.40;;;5.00;;
2656;SDS011;1338;48.176;11.792;2023-05-07T01:14:05;4.80;;;4.40;;
2656;SDS011;1338;48.176;11.792;2023-05-07T01:16:34;6.00;;;5.50;;
2656;SDS011;1338;48.176;11.792;2023-05-07T01:19:02;5.57;;;5.07;;
2656;SDS011;1338;48.176;11.792;2023-05-07T01:21:32;5.37;;;4.97;;
2656;SDS011;1338;48.176;11.792;2023-05-07T01:24:05;5.37;;;4.90;;
2656;SDS011;1338;48.176;11.792;2023-05-07T01:26:33;5.50;;;5.00;;
2656;SDS011;1338;48.176;11.792;2023-05-07T01:29:02;27.37;;;7.10;;
2656;SDS011;1338;48.176;11.792;2023-05-07T01:31:30;4.93;;;4.53;;
2656;SDS011;1338;48.176;11.792;2023-05-07T01:33:59;6.60;;;5.70;;
2656;SDS011;1338;48.176;11.792;2023-05-07T01:36:29;6.27;;;5.67;;
2656;SDS011;1338;48.176;11.792;2023-05-07T01:38:58;6.77;;;5.97;;
2656;SDS011;1338;48.176;11.792;2023-05-07T01:41:28;6.57;;;5.43;;
2656;SDS011;1338;48.176;11.792;2023-05-07T01:43:56;6.50;;;5.90;;
2656;SDS011;1338;48.176;11.792;2023-05-07T01:46:26;6.93;;;6.33;;
2656;SDS011;1338;48.176;11.792;2023-05-07T01:48:55;5.80;;;5.20;;
2656;SDS011;1338;48.176;11.792;2023-05-07T01:51:23;5.70;;;5.20;;
2656;SDS011;1338;48.176;11.792;2023-05-07T01:53:51;5.67;;;5.17;;
2656;SDS011;1338;48.176;11.792;2023-05-07T01:56:20;6.50;;;5.90;;
2656;SDS011;1338;48.176;11.792;2023-05-07T01:58:49;6.00;;;5.50;;
2656;SDS011;1338;48.176;11.792;2023-05-07T02:01:18;5.47;;;5.07;;
2656;SDS011;1338;48.176;11.792;2023-05-07T02:03:47;6.10;;;5.60;;
2656;SDS011;1338;48.176;11.792;2023-05-07T02:06:21;5.40;;;4.90;;
2656;SDS011;1338;48.176;11.792;2023-05-07T02:08:54;5.93;;;5.40;;
2656;SDS011;1338;48.176;11.792;2023-05-07T02:11:22;5.67;;;5.17;;
2656;SDS011;1338;48.176;11.792;2023-05-07T02:13:52;5.67;;;5.17;;
2656;SDS011;1338;48.176;11.792;2023-05-07T02:16:21;5.80;;;5.30;;
2656;SDS011;1338;48.176;11.792;2023-05-07T02:18:50;5.80;;;5.30;;
2656;SDS011;1338;48.176;11.792;2023-05-07T02:21:18;5.70;;;5.23;;
2656;SDS011;1338;48.176;11.792;2023-05-07T02:23:46;6.20;;;5.57;;
2656;SDS011;1338;48.176;11.792;2023-05-07T02:26:14;7.50;;;5.33;;
2656;SDS011;1338;48.176;11.792;2023-05-07T02:28:44;6.23;;;5.73;;
2656;SDS011;1338;48.176;11.792;2023-05-07T02:31:13;6.57;;;5.97;;
2656;SDS011;1338;48.176;11.792;2023-05-07T02:33:41;6.97;;;5.93;;
2656;SDS011;1338;48.176;11.792;2023-05-07T02:36:10;6.17;;;5.57;;
2656;SDS011;1338;48.176;11.792;2023-05-07T02:38:45;5.70;;;5.20;;
2656;SDS011;1338;48.176;11.792;2023-05-07T02:41:13;6.60;;;6.00;;
2656;SDS011;1338;48.176;11.792;2023-05-07T02:43:41;6.13;;;5.63;;
2656;SDS011;1338;48.176;11.792;2023-05-07T02:46:11;6.10;;;5.60;;
2656;SDS011;1338;48.176;11.792;2023-05-07T02:48:44;5.63;;;5.13;;
2656;SDS011;1338;48.176;11.792;2023-05-07T02:51:13;5.93;;;5.40;;
2656;SDS011;1338;48.176;11.792;2023-05-07T02:53:42;6.50;;;5.43;;
2656;SDS011;1338;48.176;11.792;2023-05-07T02:56:10;5.40;;;5.00;;
2656;SDS011;1338;48.176;11.792;2023-05-07T02:58:38;6.00;;;5.40;;
2656;SDS011;1338;48.176;11.792;2023-05-07T03:01:07;6.43;;;5.83;;
2656;SDS011;1338;48.176;11.792;2023-05-07T03:03:52;7.13;;;6.43;;
2656;SDS011;1338;48.176;11.792;2023-05-07T03:06:21;6.33;;;5.80;;
2656;SDS011;1338;48.176;11.792;2023-05-07T03:08:49;5.10;;;4.60;;
2656;SDS011;1338;48.176;11.792;2023-05-07T03:11:17;6.37;;;5.77;;
2656;SDS011;1338;48.176;11.792;2023-05-07T03:13:46;6.03;;;5.43;;
2656;SDS011;1338;48.176;11.792;2023-05-07T03:16:16;6.20;;;5.60;;
2656;SDS011;1338;48.176;11.792;2023-05-07T03:18:44;5.73;;;5.23;;
2656;SDS011;1338;48.176;11.792;2023-05-07T03:21:14;5.60;;;5.10;;
2656;SDS011;1338;48.176;11.792;2023-05-07T03:23:42;5.43;;;4.93;;
2656;SDS011;1338;48.176;11.792;2023-05-07T03:26:11;6.03;;;5.47;;
2656;SDS011;1338;48.176;11.792;2023-05-07T03:28:40;5.80;;;5.27;;
2656;SDS011;1338;48.176;11.792;2023-05-07T03:31:11;5.60;;;5.00;;
2656;SDS011;1338;48.176;11.792;2023-05-07T03:33:49;6.00;;;5.40;;
2656;SDS011;1338;48.176;11.792;2023-05-07T03:36:19;5.70;;;5.20;;
2656;SDS011;1338;48.176;11.792;2023-05-07T03:38:48;5.37;;;4.87;;
2656;SDS011;1338;48.176;11.792;2023-05-07T03:41:19;5.90;;;5.30;;
2656;SDS011;1338;48.176;11.792;2023-05-07T03:43:48;5.80;;;5.30;;
2656;SDS011;1338;48.176;11.792;2023-05-07T03:46:16;5.97;;;5.47;;
2656;SDS011;1338;48.176;11.792;2023-05-07T03:48:44;5.20;;;4.70;;
2656;SDS011;1338;48.176;11.792;2023-05-07T03:51:13;7.70;;;5.70;;
2656;SDS011;1338;48.176;11.792;2023-05-07T03:53:43;5.80;;;5.20;;
2656;SDS011;1338;48.176;11.792;2023-05-07T03:56:11;6.23;;;5.63;;
2656;SDS011;1338;48.176;11.792;2023-05-07T03:58:40;6.47;;;5.87;;
2656;SDS011;1338;48.176;11.792;2023-05-07T04:01:09;5.80;;;5.40;;
2656;SDS011;1338;48.176;11.792;2023-05-07T04:03:38;6.50;;;5.90;;
2656;SDS011;1338;48.176;11.792;2023-05-07T04:06:07;6.10;;;5.60;;
2656;SDS011;1338;48.176;11.792;2023-05-07T04:08:35;6.20;;;5.60;;
2656;SDS011;1338;48.176;11.792;2023-05-07T04:11:06;6.03;;;5.43;;
2656;SDS011;1338;48.176;11.792;2023-05-07T04:13:36;6.23;;;5.70;;
2656;SDS011;1338;48.176;11.792;2023-05-07T04:16:06;5.40;;;4.90;;
2656;SDS011;1338;48.176;11.792;2023-05-07T04:18:36;6.17;;;5.67;;
2656;SDS011;1338;48.176;11.792;2023-05-07T04:21:04;6.00;;;5.40;;
2656;SDS011;1338;48.176;11.792;2023-05-07T04:23:35;5.87;;;5.47;;
2656;SDS011;1338;48.176;11.792;2023-05-07T04:26:09;5.87;;;5.37;;
2656;SDS011;1338;48.176;11.792;2023-05-07T04:28:40;5.80;;;5.30;;
2656;SDS011;1338;48.176;11.792;2023-05-07T04:31:09;5.50;;;5.00;;
2656;SDS011;1338;48.176;11.792;2023-05-07T04:33:38;5.57;;;5.10;;
2656;SDS011;1338;48.176;11.792;2023-05-07T04:36:09;5.70;;;5.20;;
2656;SDS011;1338;48.176;11.792;2023-05-07T04:38:47;6.87;;;6.23;;
2656;SDS011;1338;48.176;11.792;2023-05-07T04:41:18;6.10;;;5.50;;
2656;SDS011;1338;48.176;11.792;2023-05-07T04:43:47;5.70;;;5.20;;
2656;SDS011;1338;48.176;11.792;2023-05-07T04:46:17;6.13;;;5.57;;
2656;SDS011;1338;48.176;11.792;2023-05-07T04:48:47;5.60;;;5.10;;
2656;SDS011;1338;48.176;11.792;2023-05-07T04:51:16;6.30;;;5.53;;
2656;SDS011;1338;48.176;11.792;2023-05-07T04:53:44;7.47;;;6.00;;
2656;SDS011;1338;48.176;11.792;2023-05-07T04:56:12;6.13;;;5.60;;
2656;SDS011;1338;48.176;11.792;2023-05-07T04:58:44;6.30;;;5.73;;
2656;SDS011;1338;48.176;11.792;2023-05-07T05:01:13;7.77;;;6.07;;
2656;SDS011;1338;48.176;11.792;2023-05-07T05:03:42;7.17;;;6.47;;
2656;SDS011;1338;48.176;11.792;2023-05-07T05:06:11;7.83;;;6.80;;
2656;SDS011;1338;48.176;11.792;2023-05-07T05:08:39;7.77;;;7.03;;
2656;SDS011;1338;48.176;11.792;2023-05-07T05:11:09;7.50;;;6.80;;
2656;SDS011;1338;48.176;11.792;2023-05-07T05:13:38;8.50;;;7.60;;
2656;SDS011;1338;48.176;11.792;2023-05-07T05:16:16;8.40;;;7.53;;
2656;SDS011;1338;48.176;11.792;2023-05-07T05:18:44;8.30;;;7.50;;
2656;SDS011;1338;48.176;11.792;2023-05-07T05:21:15;7.70;;;7.00;;
2656;SDS011;1338;48.176;11.792;2023-05-07T05:23:46;8.50;;;7.50;;
2656;SDS011;1338;48.176;11.792;2023-05-07T05:26:18;9.13;;;8.20;;
2656;SDS011;1338;48.176;11.792;2023-05-07T05:28:47;8.27;;;7.47;;
2656;SDS011;1338;48.176;11.792;2023-05-07T05:31:20;9.10;;;7.93;;
2656;SDS011;1338;48.176;11.792;2023-05-07T05:33:49;9.00;;;7.80;;
2656;SDS011;1338;48.176;11.792;2023-05-07T05:36:17;7.13;;;6.43;;
2656;SDS011;1338;48.176;11.792;2023-05-07T05:38:46;7.47;;;6.73;;
2656;SDS011;1338;48.176;11.792;2023-05-07T05:41:15;9.63;;;8.53;;
2656;SDS011;1338;48.176;11.792;2023-05-07T05:43:43;8.83;;;8.03;;
2656;SDS011;1338;48.176;11.792;2023-05-07T05:46:11;10.80;;;8.33;;
2656;SDS011;1338;48.176;11.792;2023-05-07T05:48:41;10.37;;;8.40;;
2656;SDS011;1338;48.176;11.792;2023-05-07T05:51:09;9.70;;;8.47;;
2656;SDS011;1338;48.176;11.792;2023-05-07T05:53:38;8.60;;;7.80;;
2656;SDS011;1338;48.176;11.792;2023-05-07T05:56:06;9.67;;;8.53;;
2656;SDS011;1338;48.176;11.792;2023-05-07T05:58:36;8.77;;;7.90;;
2656;SDS011;1338;48.176;11.792;2023-05-07T06:01:06;9.93;;;8.40;;
2656;SDS011;1338;48.176;11.792;2023-05-07T06:03:37;7.20;;;6.50;;
2656;SDS011;1338;48.176;11.792;2023-05-07T06:06:12;6.50;;;5.90;;
2656;SDS011;1338;48.176;11.792;2023-05-07T06:08:42;9.23;;;8.27;;
2656;SDS011;1338;48.176;11.792;2023-05-07T06:11:14;9.47;;;8.57;;
2656;SDS011;1338;48.176;11.792;2023-05-07T06:13:44;8.57;;;7.57;;
2656;SDS011;1338;48.176;11.792;2023-05-07T06:16:13;8.60;;;6.23;;
2656;SDS011;1338;48.176;11.792;2023-05-07T06:18:42;9.17;;;7.70;;
2656;SDS011;1338;48.176;11.792;2023-05-07T06:21:14;7.33;;;6.43;;
2656;SDS011;1338;48.176;11.792;2023-05-07T06:23:42;8.33;;;7.13;;
2656;SDS011;1338;48.176;11.792;2023-05-07T06:26:10;8.07;;;7.27;;
2656;SDS011;1338;48.176;11.792;2023-05-07T06:28:41;6.07;;;5.50;;
2656;SDS011;1338;48.176;11.792;2023-05-07T06:31:12;7.00;;;6.30;;
2656;SDS011;1338;48.176;11.792;2023-05-07T06:33:46;6.40;;;5.80;;
2656;SDS011;1338;48.176;11.792;2023-05-07T06:36:17;5.43;;;4.93;;
2656;SDS011;1338;48.176;11.792;2023-05-07T06:38:45;6.47;;;5.77;;
2656;SDS011;1338;48.176;11.792;2023-05-07T06:41:14;6.03;;;5.47;;
2656;SDS011;1338;48.176;11.792;2023-05-07T06:43:42;5.90;;;5.40;;
2656;SDS011;1338;48.176;11.792;2023-05-07T06:46:29;5.70;;;5.20;;
2656;SDS011;1338;48.176;11.792;2023-05-07T06:48:57;6.20;;;5.60;;
2656;SDS011;1338;48.176;11.792;2023-05-07T06:51:28;5.30;;;4.80;;
2656;SDS011;1338;48.176;11.792;2023-05-07T06:54:00;5.80;;;5.37;;
2656;SDS011;1338;48.176;11.792;2023-05-07T06:56:31;5.50;;;5.00;;
2656;SDS011;1338;48.176;11.792;2023-05-07T06:59:00;5.97;;;5.47;;
2656;SDS011;1338;48.176;11.792;2023-05-07T07:01:33;5.60;;;5.10;;
2656;SDS011;1338;48.176;11.792;2023-05-07T07:04:03;5.67;;;5.17;;
2656;SDS011;1338;48.176;11.792;2023-05-07T07:06:33;7.40;;;4.47;;
2656;SDS011;1338;48.176;11.792;2023-05-07T07:09:06;4.43;;;4.13;;
2656;SDS011;1338;48.176;11.792;2023-05-07T07:11:34;5.43;;;4.93;;
2656;SDS011;1338;48.176;11.792;2023-05-07T07:14:03;5.13;;;4.50;;
2656;SDS011;1338;48.176;11.792;2023-05-07T07:16:36;4.37;;;4.03;;
2656;SDS011;1338;48.176;11.792;2023-05-07T07:19:05;5.40;;;4.90;;
2656;SDS011;1338;48.176;11.792;2023-05-07T07:21:34;4.27;;;3.97;;
2656;SDS011;1338;48.176;11.792;2023-05-07T07:24:02;4.53;;;4.23;;
2656;SDS011;1338;48.176;11.792;2023-05-07T07:26:31;4.37;;;4.07;;
2656;SDS011;1338;48.176;11.792;2023-05-07T07:28:59;4.43;;;4.13;;
2656;SDS011;1338;48.176;11.792;2023-05-07T07:31:27;4.23;;;3.83;;
2656;SDS011;1338;48.176;11.792;2023-05-07T07:33:57;4.53;;;4.23;;
2656;SDS011;1338;48.176;11.792;2023-05-07T07:36:26;5.33;;;4.83;;
2656;SDS011;1338;48.176;11.792;2023-05-07T07:39:13;5.30;;;4.90;;
2656;SDS011;1338;48.176;11.792;2023-05-07T07:41:42;4.73;;;4.10;;
2656;SDS011;1338;48.176;11.792;2023-05-07T07:44:11;5.10;;;4.70;;
2656;SDS011;1338;48.176;11.792;2023-05-07T07:46:44;3.80;;;3.57;;
2656;SDS011;1338;48.176;11.792;2023-05-07T07:49:12;4.23;;;3.93;;
2656;SDS011;1338;48.176;11.792;2023-05-07T07:51:41;4.73;;;4.33;;
2656;SDS011;1338;48.176;11.792;2023-05-07T07:54:10;4.17;;;3.77;;
2656;SDS011;1338;48.176;11.792;2023-05-07T07:56:40;4.43;;;4.13;;
2656;SDS011;1338;48.176;11.792;2023-05-07T07:59:10;4.20;;;3.90;;
2656;SDS011;1338;48.176;11.792;2023-05-07T08:01:40;4.07;;;3.70;;
2656;SDS011;1338;48.176;11.792;2023-05-07T08:04:08;5.93;;;4.73;;
2656;SDS011;1338;48.176;11.792;2023-05-07T08:06:39;4.20;;;3.90;;
2656;SDS011;1338;48.176;11.792;2023-05-07T08:09:09;4.23;;;3.87;;
2656;SDS011;1338;48.176;11.792;2023-05-07T08:11:41;4.73;;;4.20;;
2656;SDS011;1338;48.176;11.792;2023-05-07T08:14:09;4.63;;;4.20;;
2656;SDS011;1338;48.176;11.792;2023-05-07T08:16:39;4.60;;;4.20;;
2656;SDS011;1338;48.176;11.792;2023-05-07T08:19:07;4.30;;;4.00;;
2656;SDS011;1338;48.176;11.792;2023-05-07T08:21:38;4.33;;;4.03;;
2656;SDS011;1338;48.176;11.792;2023-05-07T08:24:08;7.70;;;4.47;;
2656;SDS011;1338;48.176;11.792;2023-05-07T08:26:37;4.07;;;3.77;;
2656;SDS011;1338;48.176;11.792;2023-05-07T08:29:08;4.90;;;4.50;;
2656;SDS011;1338;48.176;11.792;2023-05-07T08:31:36;4.93;;;4.43;;
2656;SDS011;1338;48.176;11.792;2023-05-07T08:34:05;3.93;;;3.63;;
2656;SDS011;1338;48.176;11.792;2023-05-07T08:36:38;4.47;;;4.07;;
2656;SDS011;1338;48.176;11.792;2023-05-07T08:39:09;4.10;;;3.80;;
2656;SDS011;1338;48.176;11.792;2023-05-07T08:41:37;5.10;;;4.70;;
2656;SDS011;1338;48.176;11.792;2023-05-07T08:44:06;4.57;;;4.17;;
2656;SDS011;1338;48.176;11.792;2023-05-07T08:46:41;3.67;;;3.37;;
2656;SDS011;1338;48.176;11.792;2023-05-07T08:49:14;4.00;;;3.60;;
2656;SDS011;1338;48.176;11.792;2023-05-07T08:51:42;5.20;;;4.80;;
2656;SDS011;1338;48.176;11.792;2023-05-07T08:54:12;5.47;;;4.93;;
2656;SDS011;1338;48.176;11.792;2023-05-07T08:56:44;5.20;;;4.70;;
2656;SDS011;1338;48.176;11.792;2023-05-07T08:59:14;4.57;;;4.17;;
2656;SDS011;1338;48.176;11.792;2023-05-07T09:01:43;5.40;;;4.90;;
2656;SDS011;1338;48.176;11.792;2023-05-07T09:04:12;4.40;;;4.10;;
2656;SDS011;1338;48.176;11.792;2023-05-07T09:06:41;4.30;;;4.00;;
2656;SDS011;1338;48.176;11.792;2023-05-07T09:09:14;4.40;;;4.00;;
2656;SDS011;1338;48.176;11.792;2023-05-07T09:11:45;5.63;;;5.13;;
2656;SDS011;1338;48.176;11.792;2023-05-07T09:14:18;5.50;;;4.67;;
2656;SDS011;1338;48.176;11.792;2023-05-07T09:16:51;4.70;;;4.30;;
2656;SDS011;1338;48.176;11.792;2023-05-07T09:19:22;4.27;;;3.87;;
2656;SDS011;1338;48.176;11.792;2023-05-07T09:21:57;4.00;;;3.70;;
2656;SDS011;1338;48.176;11.792;2023-05-07T09:24:29;4.03;;;3.73;;
2656;SDS011;1338;48.176;11.792;2023-05-07T09:27:02;3.93;;;3.57;;
2656;SDS011;1338;48.176;11.792;2023-05-07T09:29:33;3.60;;;3.30;;
2656;SDS011;1338;48.176;11.792;2023-05-07T09:32:05;4.63;;;4.23;;
2656;SDS011;1338;48.176;11.792;2023-05-07T09:34:34;3.87;;;3.57;;
2656;SDS011;1338;48.176;11.792;2023-05-07T09:37:05;4.63;;;3.93;;
2656;SDS011;1338;48.176;11.792;2023-05-07T09:39:40;6.20;;;5.70;;
2656;SDS011;1338;48.176;11.792;2023-05-07T09:42:10;4.00;;;3.70;;
2656;SDS011;1338;48.176;11.792;2023-05-07T09:44:40;4.20;;;3.80;;
2656;SDS011;1338;48.176;11.792;2023-05-07T09:47:15;4.03;;;3.73;;
2656;SDS011;1338;48.176;11.792;2023-05-07T09:49:50;3.93;;;3.63;;
2656;SDS011;1338;48.176;11.792;2023-05-07T09:52:23;3.93;;;3.63;;
2656;SDS011;1338;48.176;11.792;2023-05-07T09:54:55;3.73;;;3.33;;
2656;SDS011;1338;48.176;11.792;2023-05-07T09:57:27;3.93;;;3.63;;
2656;SDS011;1338;48.176;11.792;2023-05-07T10:00:02;4.10;;;3.80;;
2656;SDS011;1338;48.176;11.792;2023-05-07T10:02:46;3.73;;;3.53;;
2656;SDS011;1338;48.176;11.792;2023-05-07T10:05:19;3.20;;;3.00;;
2656;SDS011;1338;48.176;11.792;2023-05-07T10:07:48;3.23;;;3.03;;
2656;SDS011;1338;48.176;11.792;2023-05-07T10:10:19;3.23;;;3.03;;
2656;SDS011;1338;48.176;11.792;2023-05-07T10:12:48;3.13;;;2.93;;
2656;SDS011;1338;48.176;11.792;2023-05-07T10:15:27;3.47;;;3.17;;
2656;SDS011;1338;48.176;11.792;2023-05-07T10:17:58;3.80;;;3.47;;
2656;SDS011;1338;48.176;11.792;2023-05-07T10:20:28;3.80;;;3.50;;
2656;SDS011;1338;48.176;11.792;2023-05-07T10:22:57;3.70;;;3.40;;
2656;SDS011;1338;48.176;11.792;2023-05-07T10:25:34;4.27;;;3.87;;
2656;SDS011;1338;48.176;11.792;2023-05-07T10:28:10;4.73;;;4.33;;
2656;SDS011;1338;48.176;11.792;2023-05-07T10:30:47;5.00;;;4.43;;
2656;SDS011;1338;48.176;11.792;2023-05-07T10:33:33;4.13;;;3.83;;
2656;SDS011;1338;48.176;11.792;2023-05-07T10:36:04;4.93;;;4.53;;
2656;SDS011;1338;48.176;11.792;2023-05-07T10:38:34;5.57;;;5.17;;
2656;SDS011;1338;48.176;11.792;2023-05-07T10:41:04;5.00;;;4.60;;
2656;SDS011;1338;48.176;11.792;2023-05-07T10:43:39;5.20;;;4.80;;
2656;SDS011;1338;48.176;11.792;2023-05-07T10:46:15;5.90;;;5.40;;
2656;SDS011;1338;48.176;11.792;2023-05-07T10:49:08;4.60;;;4.30;;
2656;SDS011;1338;48.176;11.792;2023-05-07T10:55:18;6.30;;;5.87;;
2656;SDS011;1338;48.176;11.792;2023-05-07T10:58:26;5.57;;;4.90;;
2656;SDS011;1338;48.176;11.792;2023-05-07T11:01:15;6.30;;;4.10;;
2656;SDS011;1338;48.176;11.792;2023-05-07T11:04:33;5.07;;;4.67;;
2656;SDS011;1338;48.176;11.792;2023-05-07T11:07:29;4.73;;;4.43;;
2656;SDS011;1338;48.176;11.792;2023-05-07T11:10:06;4.60;;;4.30;;
2656;SDS011;1338;48.176;11.792;2023-05-07T11:15:43;6.07;;;5.57;;
2656;SDS011;1338;48.176;11.792;2023-05-07T11:18:41;5.03;;;4.63;;
2656;SDS011;1338;48.176;11.792;2023-05-07T11:21:20;4.50;;;4.10;;
2656;SDS011;1338;48.176;11.792;2023-05-07T11:24:07;4.40;;;4.10;;
2656;SDS011;1338;48.176;11.792;2023-05-07T11:26:47;5.23;;;4.83;;
2656;SDS011;1338;48.176;11.792;2023-05-07T11:29:18;4.67;;;4.37;;
2656;SDS011;1338;48.176;11.792;2023-05-07T11:31:53;4.80;;;4.40;;
2656;SDS011;1338;48.176;11.792;2023-05-07T11:34:29;5.30;;;4.90;;
2656;SDS011;1338;48.176;11.792;2023-05-07T11:36:58;4.87;;;4.57;;
2656;SDS011;1338;48.176;11.792;2023-05-07T11:39:45;5.10;;;4.60;;
2656;SDS011;1338;48.176;11.792;2023-05-07T11:42:25;4.90;;;4.40;;
2656;SDS011;1338;48.176;11.792;2023-05-07T11:44:55;3.87;;;3.57;;
2656;SDS011;1338;48.176;11.792;2023-05-07T11:47:24;4.87;;;4.50;;
2656;SDS011;1338;48.176;11.792;2023-05-07T11:49:54;4.50;;;3.90;;
2656;SDS011;1338;48.176;11.792;2023-05-07T11:52:23;4.07;;;3.77;;
2656;SDS011;1338;48.176;11.792;2023-05-07T11:54:52;4.37;;;4.07;;
2656;SDS011;1338;48.176;11.792;2023-05-07T11:57:22;3.90;;;3.60;;
2656;SDS011;1338;48.176;11.792;2023-05-07T11:59:52;3.70;;;3.50;;
2656;SDS011;1338;48.176;11.792;2023-05-07T12:02:20;3.70;;;3.40;;
2656;SDS011;1338;48.176;11.792;2023-05-07T12:04:51;4.33;;;4.03;;
2656;SDS011;1338;48.176;11.792;2023-05-07T12:07:21;3.30;;;3.10;;
2656;SDS011;1338;48.176;11.792;2023-05-07T12:09:51;3.87;;;3.57;;
2656;SDS011;1338;48.176;11.792;2023-05-07T12:12:21;3.50;;;3.30;;
2656;SDS011;1338;48.176;11.792;2023-05-07T12:14:49;3.30;;;3.10;;
2656;SDS011;1338;48.176;11.792;2023-05-07T12:17:17;3.50;;;3.30;;
2656;SDS011;1338;48.176;11.792;2023-05-07T12:19:45;4.53;;;3.90;;
2656;SDS011;1338;48.176;11.792;2023-05-07T12:22:15;3.67;;;3.47;;
2656;SDS011;1338;48.176;11.792;2023-05-07T12:24:44;3.50;;;3.30;;
2656;SDS011;1338;48.176;11.792;2023-05-07T12:27:13;3.30;;;3.00;;
2656;SDS011;1338;48.176;11.792;2023-05-07T12:29:43;3.70;;;3.40;;
2656;SDS011;1338;48.176;11.792;2023-05-07T12:32:13;3.40;;;3.20;;
2656;SDS011;1338;48.176;11.792;2023-05-07T12:34:42;3.10;;;2.90;;
2656;SDS011;1338;48.176;11.792;2023-05-07T12:37:11;3.20;;;3.00;;
2656;SDS011;1338;48.176;11.792;2023-05-07T12:39:46;2.83;;;2.63;;
2656;SDS011;1338;48.176;11.792;2023-05-07T12:42:15;3.30;;;3.10;;
2656;SDS011;1338;48.176;11.792;2023-05-07T12:44:49;3.10;;;2.90;;
2656;SDS011;1338;48.176;11.792;2023-05-07T12:47:18;3.20;;;3.00;;
2656;SDS011;1338;48.176;11.792;2023-05-07T12:49:47;2.90;;;2.70;;
2656;SDS011;1338;48.176;11.792;2023-05-07T12:52:16;3.03;;;2.83;;
2656;SDS011;1338;48.176;11.792;2023-05-07T12:54:45;2.73;;;2.53;;
2656;SDS011;1338;48.176;11.792;2023-05-07T12:57:15;3.13;;;2.90;;
2656;SDS011;1338;48.176;11.792;2023-05-07T12:59:47;3.00;;;2.80;;
2656;SDS011;1338;48.176;11.792;2023-05-07T13:02:15;3.53;;;3.33;;
2656;SDS011;1338;48.176;11.792;2023-05-07T13:04:43;3.00;;;2.80;;
2656;SDS011;1338;48.176;11.792;2023-05-07T13:07:11;3.70;;;3.40;;
2656;SDS011;1338;48.176;11.792;2023-05-07T13:09:39;3.80;;;3.50;;
2656;SDS011;1338;48.176;11.792;2023-05-07T13:12:10;3.10;;;2.90;;
2656;SDS011;1338;48.176;11.792;2023-05-07T13:14:38;2.90;;;2.60;;
2656;SDS011;1338;48.176;11.792;2023-05-07T13:17:06;3.00;;;2.80;;
2656;SDS011;1338;48.176;11.792;2023-05-07T13:19:34;3.67;;;3.47;;
2656;SDS011;1338;48.176;11.792;2023-05-07T13:22:03;3.70;;;3.40;;
2656;SDS011;1338;48.176;11.792;2023-05-07T13:24:31;3.60;;;3.30;;
2656;SDS011;1338;48.176;11.792;2023-05-07T13:27:00;3.53;;;3.33;;
2656;SDS011;1338;48.176;11.792;2023-05-07T13:29:29;3.80;;;3.50;;
2656;SDS011;1338;48.176;11.792;2023-05-07T13:31:58;3.60;;;3.40;;
2656;SDS011;1338;48.176;11.792;2023-05-07T13:34:27;3.67;;;3.47;;
2656;SDS011;1338;48.176;11.792;2023-05-07T13:36:55;4.03;;;3.73;;
2656;SDS011;1338;48.176;11.792;2023-05-07T13:39:23;4.00;;;3.70;;
2656;SDS011;1338;48.176;11.792;2023-05-07T13:41:51;3.63;;;3.43;;
2656;SDS011;1338;48.176;11.792;2023-05-07T13:44:19;3.53;;;3.33;;
2656;SDS011;1338;48.176;11.792;2023-05-07T13:46:49;3.77;;;3.57;;
2656;SDS011;1338;48.176;11.792;2023-05-07T13:49:17;3.83;;;3.53;;
2656;SDS011;1338;48.176;11.792;2023-05-07T13:51:45;4.07;;;3.87;;
2656;SDS011;1338;48.176;11.792;2023-05-07T13:54:13;3.90;;;3.60;;
2656;SDS011;1338;48.176;11.792;2023-05-07T13:56:42;4.43;;;4.13;;
2656;SDS011;1338;48.176;11.792;2023-05-07T13:59:10;3.50;;;3.30;;
2656;SDS011;1338;48.176;11.792;2023-05-07T14:01:40;4.20;;;3.90;;
2656;SDS011;1338;48.176;11.792;2023-05-07T14:04:10;3.90;;;3.60;;
2656;SDS011;1338;48.176;11.792;2023-05-07T14:06:38;3.83;;;3.50;;
2656;SDS011;1338;48.176;11.792;2023-05-07T14:09:06;3.83;;;3.43;;
2656;SDS011;1338;48.176;11.792;2023-05-07T14:11:34;3.83;;;3.63;;
2656;SDS011;1338;48.176;11.792;2023-05-07T14:14:03;3.97;;;3.67;;
2656;SDS011;1338;48.176;11.792;2023-05-07T14:16:31;3.50;;;3.20;;
2656;SDS011;1338;48.176;11.792;2023-05-07T14:18:59;3.87;;;3.57;;
2656;SDS011;1338;48.176;11.792;2023-05-07T14:21:29;3.40;;;3.20;;
2656;SDS011;1338;48.176;11.792;2023-05-07T14:23:57;3.77;;;3.57;;
2656;SDS011;1338;48.176;11.792;2023-05-07T14:26:26;4.13;;;3.67;;
2656;SDS011;1338;48.176;11.792;2023-05-07T14:28:54;3.87;;;3.57;;
2656;SDS011;1338;48.176;11.792;2023-05-07T14:31:24;3.40;;;3.20;;
2656;SDS011;1338;48.176;11.792;2023-05-07T14:33:53;3.77;;;3.47;;
2656;SDS011;1338;48.176;11.792;2023-05-07T14:36:21;3.50;;;3.30;;
2656;SDS011;1338;48.176;11.792;2023-05-07T14:38:53;3.63;;;3.43;;
2656;SDS011;1338;48.176;11.792;2023-05-07T14:41:21;3.60;;;3.30;;
2656;SDS011;1338;48.176;11.792;2023-05-07T14:43:49;3.63;;;3.33;;
2656;SDS011;1338;48.176;11.792;2023-05-07T14:46:18;3.90;;;3.60;;
2656;SDS011;1338;48.176;11.792;2023-05-07T14:48:46;3.33;;;3.13;;
2656;SDS011;1338;48.176;11.792;2023-05-07T14:51:14;4.07;;;3.80;;
2656;SDS011;1338;48.176;11.792;2023-05-07T14:53:42;3.60;;;3.40;;
2656;SDS011;1338;48.176;11.792;2023-05-07T14:56:11;3.90;;;3.60;;
2656;SDS011;1338;48.176;11.792;2023-05-07T14:58:40;3.93;;;3.60;;
2656;SDS011;1338;48.176;11.792;2023-05-07T15:01:08;4.03;;;3.73;;
2656;SDS011;1338;48.176;11.792;2023-05-07T15:03:36;3.80;;;3.50;;
2656;SDS011;1338;48.176;11.792;2023-05-07T15:06:04;4.03;;;3.77;;
2656;SDS011;1338;48.176;11.792;2023-05-07T15:08:32;3.50;;;3.20;;
2656;SDS011;1338;48.176;11.792;2023-05-07T15:11:00;3.70;;;3.50;;
2656;SDS011;1338;48.176;11.792;2023-05-07T15:13:30;3.10;;;2.90;;
2656;SDS011;1338;48.176;11.792;2023-05-07T15:15:58;3.90;;;3.60;;
2656;SDS011;1338;48.176;11.792;2023-05-07T15:18:26;3.87;;;3.57;;
2656;SDS011;1338;48.176;11.792;2023-05-07T15:20:55;3.00;;;2.80;;
2656;SDS011;1338;48.176;11.792;2023-05-07T15:23:23;3.30;;;3.10;;
2656;SDS011;1338;48.176;11.792;2023-05-07T15:25:52;3.10;;;2.90;;
2656;SDS011;1338;48.176;11.792;2023-05-07T15:28:20;3.57;;;3.27;;